Time;durP1;ratioP1;P1;durP2;ratioP2;P2;SDS_P1;SDS_P2;PMS_P1;PMS_P2;Temp;Humidity;BMP_temperature;BMP_pressure;BME280_temperature;BME280_humidity;BME280_pressure;Samples;Min_cycle;Max_cycle;Signal;HPM_P1;HPM_P2
2023/03/02 00:01:54;;;;;;;76.88;42.13;;;7.40;99.90;;;;;;5091292;28;20051;-54
2023/03/02 00:04:28;;;;;;;78.32;43.60;;;7.40;99.90;;;;;;5093779;28;20040;-53
2023/03/02 00:06:57;;;;;;;79.97;44.35;;;7.50;99.90;;;;;;5091746;28;20040;-52
2023/03/02 00:09:24;;;;;;;76.60;44.35;;;7.50;99.90;;;;;;5059996;28;20056;-52
2023/03/02 00:11:50;;;;;;;83.95;45.25;;;7.60;99.90;;;;;;5059957;28;20083;-52
2023/03/02 00:14:16;;;;;;;72.97;43.28;;;7.60;99.90;;;;;;5093638;28;20036;-52
2023/03/02 00:16:42;;;;;;;93.22;50.13;;;7.60;99.90;;;;;;5093768;28;20050;-54
2023/03/02 00:19:08;;;;;;;85.93;49.33;;;7.50;99.90;;;;;;5095453;28;20446;-52
2023/03/02 00:21:33;;;;;;;82.85;47.80;;;7.50;99.90;;;;;;5097299;28;20471;-54
2023/03/02 00:23:59;;;;;;;84.28;48.53;;;7.50;99.90;;;;;;5115930;28;20024;-53
2023/03/02 00:26:25;;;;;;;75.35;44.70;;;7.50;99.90;;;;;;5116053;28;20110;-53
2023/03/02 00:28:50;;;;;;;73.72;43.45;;;7.50;99.90;;;;;;5115837;28;20356;-54
2023/03/02 00:31:16;;;;;;;84.90;48.80;;;7.60;99.90;;;;;;5116088;28;20034;-53
2023/03/02 00:33:42;;;;;;;80.18;47.25;;;7.50;99.90;;;;;;5115648;28;20073;-54
2023/03/02 00:36:15;;;;;;;82.22;46.40;;;7.60;99.90;;;;;;5063527;27;20035;-54
2023/03/02 00:38:41;;;;;;;80.75;46.03;;;7.60;99.90;;;;;;5115775;28;20032;-54
2023/03/02 00:41:07;;;;;;;88.03;49.60;;;7.60;99.90;;;;;;5115467;28;20363;-53
2023/03/02 00:43:33;;;;;;;83.97;49.67;;;7.50;99.90;;;;;;5113839;28;20032;-53
2023/03/02 00:45:58;;;;;;;98.53;56.92;;;7.70;99.90;;;;;;5062987;28;20398;-52
2023/03/02 00:48:24;;;;;;;87.53;50.22;;;7.70;99.90;;;;;;5115590;28;20027;-54
2023/03/02 00:50:50;;;;;;;93.53;52.85;;;7.70;99.90;;;;;;5115505;28;20023;-55
2023/03/02 00:53:16;;;;;;;80.07;47.72;;;7.70;99.90;;;;;;5115713;28;20463;-53
2023/03/02 00:55:53;;;;;;;90.40;53.03;;;7.70;99.90;;;;;;5115411;28;20028;-52
2023/03/02 00:58:20;;;;;;;89.90;52.88;;;7.60;99.90;;;;;;5115269;28;20035;-53
2023/03/02 01:00:45;;;;;;;88.47;50.67;;;7.60;99.90;;;;;;5114990;28;20052;-54
2023/03/02 01:03:11;;;;;;;88.15;47.90;;;7.50;99.90;;;;;;5096550;28;20040;-53
2023/03/02 01:05:37;;;;;;;89.43;49.25;;;7.50;99.90;;;;;;5115329;28;20039;-55
2023/03/02 01:08:03;;;;;;;88.65;49.95;;;7.40;99.90;;;;;;5115245;28;20063;-53
2023/03/02 01:10:31;;;;;;;92.07;49.40;;;7.40;99.90;;;;;;5046019;28;20047;-52
2023/03/02 01:12:56;;;;;;;88.53;50.45;;;7.40;99.90;;;;;;5079326;28;20491;-52
2023/03/02 01:15:22;;;;;;;88.60;50.13;;;7.50;99.90;;;;;;5115431;28;20088;-53
2023/03/02 01:17:48;;;;;;;92.22;52.05;;;7.50;99.90;;;;;;5092536;28;20044;-52
2023/03/02 01:20:14;;;;;;;104.40;64.75;;;7.50;99.90;;;;;;5092584;28;20040;-53
2023/03/02 01:22:41;;;;;;;119.53;69.82;;;7.50;99.90;;;;;;5092531;28;20420;-52
2023/03/02 01:25:07;;;;;;;153.43;81.97;;;7.50;99.90;;;;;;5092411;28;20051;-52
2023/03/02 01:27:33;;;;;;;143.50;75.47;;;7.50;99.90;;;;;;5058903;28;20040;-53
2023/03/02 01:29:58;;;;;;;176.48;88.00;;;7.50;99.90;;;;;;5092390;28;20068;-52
2023/03/02 01:32:24;;;;;;;139.80;74.80;;;7.60;99.90;;;;;;5092543;28;20553;-52
2023/03/02 01:34:50;;;;;;;164.18;87.97;;;7.50;99.90;;;;;;5092353;28;20093;-52
2023/03/02 01:37:16;;;;;;;210.82;105.82;;;7.60;99.90;;;;;;5092985;28;20036;-54
2023/03/02 01:39:43;;;;;;;186.57;99.15;;;7.60;99.90;;;;;;5061455;28;20040;-52
2023/03/02 01:42:08;;;;;;;176.45;95.57;;;7.60;99.90;;;;;;5093710;28;20505;-54
2023/03/02 01:44:44;;;;;;;170.75;92.95;;;7.60;99.90;;;;;;5093800;28;20064;-53
2023/03/02 01:47:22;;;;;;;177.60;97.30;;;7.80;99.90;;;;;;5093650;28;20028;-53
2023/03/02 01:50:16;;;;;;;169.95;93.93;;;7.70;99.90;;;;;;5114059;28;20053;-53
2023/03/02 01:52:42;;;;;;;174.65;97.88;;;7.80;99.90;;;;;;5115436;28;20497;-54
2023/03/02 01:55:11;;;;;;;165.05;93.05;;;7.80;99.90;;;;;;5114760;28;20062;-54
2023/03/02 01:57:42;;;;;;;182.63;101.15;;;7.70;99.90;;;;;;5114337;28;20031;-54
2023/03/02 02:00:12;;;;;;;177.50;100.40;;;7.80;99.90;;;;;;5114310;28;20069;-55
2023/03/02 02:02:40;;;;;;;203.07;110.13;;;7.80;99.90;;;;;;5114447;28;20040;-54
2023/03/02 02:05:12;;;;;;;189.60;109.60;;;7.80;99.90;;;;;;5114301;28;20122;-54
2023/03/02 02:07:38;;;;;;;148.30;91.47;;;7.80;99.90;;;;;;5079865;28;20036;-54
2023/03/02 02:10:05;;;;;;;163.95;96.55;;;7.80;99.90;;;;;;5114369;28;20027;-53
2023/03/02 02:12:31;;;;;;;165.18;97.88;;;7.80;99.90;;;;;;5114003;27;20023;-53
2023/03/02 02:14:59;;;;;;;162.75;97.22;;;7.80;99.90;;;;;;5114027;28;20368;-52
2023/03/02 02:17:27;;;;;;;149.65;92.55;;;7.80;99.90;;;;;;5113864;28;20031;-52
2023/03/02 02:20:20;;;;;;;159.35;97.47;;;7.80;99.90;;;;;;5113964;28;20386;-54
2023/03/02 02:22:55;;;;;;;137.32;80.47;;;7.90;99.90;;;;;;5113872;28;20391;-54
2023/03/02 02:25:38;;;;;;;132.32;78.78;;;7.90;99.90;;;;;;5094973;28;20062;-54
2023/03/02 02:28:09;;;;;;;129.15;73.65;;;7.80;99.90;;;;;;5113946;28;20027;-53
2023/03/02 02:30:38;;;;;;;122.77;72.07;;;7.80;99.90;;;;;;5113952;28;20031;-53
2023/03/02 02:33:05;;;;;;;128.32;73.75;;;7.80;99.90;;;;;;5113643;28;20866;-54
2023/03/02 02:35:33;;;;;;;114.35;66.75;;;7.80;99.90;;;;;;5114163;28;20054;-55
2023/03/02 02:38:05;;;;;;;116.63;70.68;;;7.80;99.90;;;;;;5113733;28;20027;-55
2023/03/02 02:40:40;;;;;;;109.95;66.55;;;7.80;99.90;;;;;;5094666;28;20051;-53
2023/03/02 02:43:09;;;;;;;102.60;59.72;;;7.70;99.90;;;;;;5113578;28;20130;-52
2023/03/02 02:45:35;;;;;;;95.70;59.85;;;7.70;99.90;;;;;;5113200;28;20506;-51
2023/03/02 02:48:01;;;;;;;104.63;63.78;;;7.70;99.90;;;;;;5094874;28;20073;-56
2023/03/02 02:50:32;;;;;;;87.95;54.22;;;7.70;99.90;;;;;;5113582;28;20032;-55
2023/03/02 02:53:13;;;;;;;97.07;58.08;;;7.70;99.90;;;;;;5113575;28;20399;-54
2023/03/02 02:55:41;;;;;;;94.00;54.88;;;7.70;99.90;;;;;;5113363;28;20098;-54
2023/03/02 02:58:24;;;;;;;89.47;51.83;;;7.80;99.90;;;;;;5114610;28;20533;-54
2023/03/02 03:00:50;;;;;;;84.78;49.53;;;7.80;99.90;;;;;;5113217;28;20048;-59
2023/03/02 03:03:35;;;;;;;77.90;47.05;;;7.80;99.90;;;;;;5114570;28;20076;-54
2023/03/02 03:06:04;;;;;;;81.03;47.65;;;7.90;99.90;;;;;;5117637;28;20035;-53
2023/03/02 03:08:45;;;;;;;83.32;47.75;;;7.90;99.90;;;;;;5117496;28;20027;-52
2023/03/02 03:11:14;;;;;;;82.25;47.80;;;7.90;99.90;;;;;;5117578;28;20024;-52
2023/03/02 03:13:42;;;;;;;76.00;46.97;;;7.90;99.90;;;;;;5098684;28;20040;-51
2023/03/02 03:16:12;;;;;;;82.22;48.42;;;7.80;99.90;;;;;;5117548;28;20023;-52
2023/03/02 03:18:41;;;;;;;79.43;45.97;;;7.80;99.90;;;;;;5117327;28;20096;-51
2023/03/02 03:21:07;;;;;;;77.90;45.90;;;7.80;99.90;;;;;;5117586;27;20059;-53
2023/03/02 03:23:37;;;;;;;80.88;45.67;;;7.80;99.90;;;;;;5117452;28;20062;-53
2023/03/02 03:26:04;;;;;;;81.22;45.35;;;7.70;99.90;;;;;;5117591;28;20043;-54
2023/03/02 03:28:30;;;;;;;78.93;44.30;;;7.70;99.90;;;;;;5117435;28;20093;-54
2023/03/02 03:30:56;;;;;;;78.70;47.00;;;7.70;99.90;;;;;;5117768;28;20032;-55
2023/03/02 03:33:22;;;;;;;80.90;47.30;;;7.70;99.90;;;;;;5117189;28;20032;-53
2023/03/02 03:35:48;;;;;;;78.38;44.75;;;7.80;99.90;;;;;;5116920;28;20032;-50
2023/03/02 03:38:15;;;;;;;72.57;42.97;;;7.90;99.90;;;;;;5117083;28;20043;-52
2023/03/02 03:40:40;;;;;;;75.13;43.17;;;8.00;99.90;;;;;;5116993;28;20027;-52
2023/03/02 03:43:06;;;;;;;73.82;44.00;;;8.00;99.90;;;;;;5117004;28;20031;-51
2023/03/02 03:45:32;;;;;;;74.10;44.75;;;8.00;99.90;;;;;;5116933;28;20387;-52
2023/03/02 03:47:58;;;;;;;80.60;45.05;;;7.90;99.90;;;;;;5116890;28;20453;-50
2023/03/02 03:50:24;;;;;;;80.65;46.85;;;7.90;99.90;;;;;;5116836;28;20030;-52
2023/03/02 03:52:50;;;;;;;77.65;45.63;;;7.80;99.90;;;;;;5116811;28;20038;-52
2023/03/02 03:55:16;;;;;;;83.10;46.00;;;7.90;99.90;;;;;;5116782;28;20039;-52
2023/03/02 03:57:42;;;;;;;79.65;45.58;;;7.90;99.90;;;;;;5116457;28;20035;-53
2023/03/02 04:00:13;;;;;;;79.10;43.15;;;8.00;99.90;;;;;;5116894;28;20115;-53
2023/03/02 04:02:40;;;;;;;77.82;42.25;;;8.00;99.90;;;;;;5073587;28;20057;-51
2023/03/02 04:05:06;;;;;;;73.18;40.05;;;7.90;99.90;;;;;;5073775;28;20052;-51
2023/03/02 04:07:33;;;;;;;72.75;37.45;;;7.90;99.90;;;;;;5073734;28;20048;-53
2023/03/02 04:10:02;;;;;;;64.93;37.60;;;7.80;99.90;;;;;;5058492;28;20052;-52
2023/03/02 04:12:33;;;;;;;69.72;39.47;;;7.80;99.90;;;;;;5075347;28;20115;-55
2023/03/02 04:14:59;;;;;;;72.22;41.33;;;7.70;99.90;;;;;;5070517;28;20122;-53
2023/03/02 04:17:25;;;;;;;73.03;41.55;;;7.60;99.90;;;;;;5023701;28;20084;-53
2023/03/02 04:19:51;;;;;;;60.00;36.22;;;7.70;99.90;;;;;;5073383;28;20124;-53
2023/03/02 04:22:18;;;;;;;70.03;42.65;;;7.80;99.90;;;;;;5073506;28;20039;-54
2023/03/02 04:24:45;;;;;;;60.10;35.25;;;7.80;99.90;;;;;;5073245;28;20036;-53
2023/03/02 04:27:12;;;;;;;56.10;34.17;;;7.80;99.90;;;;;;5073535;28;20546;-52
2023/03/02 04:29:37;;;;;;;57.97;36.05;;;7.90;99.90;;;;;;5073348;28;20115;-53
2023/03/02 04:32:04;;;;;;;59.42;34.35;;;8.00;99.90;;;;;;5023302;28;20167;-53
2023/03/02 04:34:29;;;;;;;58.42;35.05;;;8.00;99.90;;;;;;5073055;28;20037;-55
2023/03/02 04:36:55;;;;;;;52.85;32.95;;;8.00;99.90;;;;;;5023322;28;20036;-53
2023/03/02 04:39:22;;;;;;;62.58;35.80;;;8.10;99.90;;;;;;5083223;28;20040;-53
2023/03/02 04:41:48;;;;;;;58.15;33.65;;;8.10;99.90;;;;;;5115815;28;20387;-54
2023/03/02 04:44:15;;;;;;;55.78;33.50;;;8.10;99.90;;;;;;5115767;28;20038;-52
2023/03/02 04:46:42;;;;;;;58.45;34.38;;;8.00;99.90;;;;;;5115654;28;20500;-53
2023/03/02 04:49:08;;;;;;;57.30;35.00;;;8.10;99.90;;;;;;5115937;28;20554;-52
2023/03/02 04:51:39;;;;;;;62.10;34.88;;;8.10;99.90;;;;;;5115539;28;20118;-53
2023/03/02 04:54:12;;;;;;;51.75;31.25;;;8.40;99.90;;;;;;5115512;28;20066;-53
2023/03/02 04:56:37;;;;;;;;;;;8.20;99.90;;;;;;5115972;28;20059;-55
2023/03/02 04:59:03;;;;;;;57.58;35.60;;;8.10;99.90;;;;;;5115750;28;19951;-53
2023/03/02 05:01:29;;;;;;;54.65;33.47;;;8.10;99.90;;;;;;5127234;27;20089;-52
2023/03/02 05:03:54;;;;;;;52.78;34.50;;;8.10;99.90;;;;;;5135765;27;20561;-53
2023/03/02 05:06:23;;;;;;;52.90;33.10;;;8.10;99.90;;;;;;5135345;27;20046;-54
2023/03/02 05:08:49;;;;;;;56.78;34.35;;;8.00;99.90;;;;;;5136083;27;20031;-53
2023/03/02 05:11:24;;;;;;;58.45;34.03;;;7.90;99.90;;;;;;5135822;27;20041;-54
2023/03/02 05:13:56;;;;;;;57.33;32.92;;;7.90;99.90;;;;;;5135665;27;20031;-54
2023/03/02 05:16:23;;;;;;;54.17;33.00;;;8.00;99.90;;;;;;5135705;27;20083;-55
2023/03/02 05:18:49;;;;;;;52.83;33.00;;;8.00;99.90;;;;;;5135872;27;20019;-53
2023/03/02 05:21:16;;;;;;;55.58;35.15;;;8.00;99.90;;;;;;5135167;27;20471;-54
2023/03/02 05:23:42;;;;;;;59.60;35.20;;;8.10;99.90;;;;;;5134897;27;20024;-55
2023/03/02 05:26:08;;;;;;;54.25;35.42;;;8.10;99.90;;;;;;5135245;27;20511;-55
2023/03/02 05:28:34;;;;;;;51.95;32.15;;;8.20;99.90;;;;;;5115256;27;20066;-53
2023/03/02 05:31:01;;;;;;;58.40;35.22;;;8.20;99.90;;;;;;5135074;27;20038;-52
2023/03/02 05:33:27;;;;;;;56.90;36.00;;;8.20;99.90;;;;;;5135195;27;20038;-54
2023/03/02 05:35:53;;;;;;;51.72;32.95;;;8.20;99.90;;;;;;5135091;27;20404;-52
2023/03/02 05:38:19;;;;;;;55.80;33.95;;;8.20;99.90;;;;;;5135313;27;20031;-52
2023/03/02 05:40:45;;;;;;;51.65;33.92;;;8.30;99.90;;;;;;5135367;27;20106;-52
2023/03/02 05:43:15;;;;;;;54.95;34.15;;;8.30;99.90;;;;;;5135128;27;20031;-54
2023/03/02 05:45:41;;;;;;;53.70;33.70;;;8.40;99.90;;;;;;5134856;27;20064;-54
2023/03/02 05:48:07;;;;;;;58.88;35.58;;;8.50;99.90;;;;;;5107284;27;20039;-53
2023/03/02 05:50:33;;;;;;;58.60;35.33;;;8.10;99.90;;;;;;5102421;28;20035;-54
2023/03/02 05:53:01;;;;;;;59.67;36.75;;;8.00;99.90;;;;;;5130346;27;20023;-54
2023/03/02 05:55:27;;;;;;;57.63;34.95;;;7.80;99.90;;;;;;5134510;27;20069;-52
2023/03/02 05:57:53;;;;;;;58.88;35.80;;;7.70;99.90;;;;;;5134526;27;20023;-52
2023/03/02 06:00:19;;;;;;;58.03;33.70;;;7.70;99.90;;;;;;5106602;27;20195;-52
2023/03/02 06:02:45;;;;;;;62.25;36.55;;;7.70;99.90;;;;;;5134509;27;20045;-52
2023/03/02 06:05:14;;;;;;;64.03;36.55;;;7.60;99.90;;;;;;5133858;27;20035;-52
2023/03/02 06:07:40;;;;;;;68.68;39.97;;;7.50;99.90;;;;;;5134569;27;20047;-52
2023/03/02 06:10:07;;;;;;;75.10;48.72;;;7.70;99.90;;;;;;5133870;27;20517;-52
2023/03/02 06:12:33;;;;;;;82.28;49.67;;;7.80;99.90;;;;;;5056358;28;20108;-52
2023/03/02 06:14:59;;;;;;;69.15;44.00;;;7.80;99.90;;;;;;5090554;28;20475;-52
2023/03/02 06:17:25;;;;;;;73.07;44.65;;;7.80;99.90;;;;;;5090848;28;20035;-52
2023/03/02 06:19:51;;;;;;;68.50;42.85;;;7.80;99.90;;;;;;5091332;28;20046;-52
2023/03/02 06:22:18;;;;;;;63.88;40.83;;;8.00;99.90;;;;;;5091268;28;20032;-52
2023/03/02 06:24:43;;;;;;;64.10;38.28;;;8.10;99.90;;;;;;5087008;28;20036;-52
2023/03/02 06:27:10;;;;;;;55.85;35.97;;;8.30;99.90;;;;;;5075970;28;20044;-55
2023/03/02 06:29:36;;;;;;;71.80;46.30;;;8.30;99.90;;;;;;5080432;28;20043;-51
2023/03/02 06:32:02;;;;;;;74.90;48.17;;;8.40;99.90;;;;;;5070433;28;20044;-50
2023/03/02 06:34:28;;;;;;;72.45;47.10;;;8.30;99.90;;;;;;5078029;28;20043;-50
2023/03/02 06:36:54;;;;;;;73.57;46.60;;;8.30;99.90;;;;;;5074489;28;20040;-50
2023/03/02 06:39:20;;;;;;;84.03;54.97;;;8.30;99.90;;;;;;5070636;28;20120;-50
2023/03/02 06:41:47;;;;;;;77.82;50.00;;;8.30;99.90;;;;;;5076473;28;20024;-51
2023/03/02 06:44:13;;;;;;;90.55;57.20;;;8.30;99.90;;;;;;5091000;28;20047;-50
2023/03/02 06:46:40;;;;;;;87.75;54.47;;;8.30;99.90;;;;;;5091150;28;20032;-50
2023/03/02 06:49:07;;;;;;;67.18;40.63;;;8.30;99.90;;;;;;5097202;28;20073;-50
2023/03/02 06:51:33;;;;;;;71.68;42.60;;;8.30;99.90;;;;;;5134040;28;20470;-51
2023/03/02 06:53:59;;;;;;;86.47;51.80;;;8.40;99.90;;;;;;5115309;28;20050;-50
2023/03/02 06:56:25;;;;;;;95.35;59.70;;;8.30;99.90;;;;;;5134052;28;20031;-50
2023/03/02 06:58:51;;;;;;;90.35;53.15;;;8.30;99.90;;;;;;5133966;28;20035;-50
2023/03/02 07:01:16;;;;;;;82.70;50.33;;;8.30;99.90;;;;;;5080885;28;20050;-51
2023/03/02 07:03:43;;;;;;;80.80;48.28;;;8.30;99.90;;;;;;5134018;28;20513;-52
2023/03/02 07:06:11;;;;;;;80.63;47.83;;;8.30;99.90;;;;;;5133928;28;20127;-50
2023/03/02 07:08:37;;;;;;;81.05;47.63;;;7.90;99.90;;;;;;5133778;28;20038;-50
2023/03/02 07:11:09;;;;;;;79.03;45.00;;;8.00;99.90;;;;;;5134311;28;20031;-50
2023/03/02 07:13:37;;;;;;;79.32;51.97;;;8.10;99.90;;;;;;5133862;28;20447;-50
2023/03/02 07:16:09;;;;;;;82.82;46.13;;;8.20;99.90;;;;;;5133847;28;20478;-51
2023/03/02 07:18:35;;;;;;;80.68;47.17;;;8.20;99.90;;;;;;5114907;28;20054;-50
2023/03/02 07:21:02;;;;;;;80.38;46.80;;;8.20;99.90;;;;;;5115038;28;20487;-50
2023/03/02 07:23:27;;;;;;;71.72;42.03;;;8.00;99.90;;;;;;5133731;27;20027;-50
2023/03/02 07:25:53;;;;;;;90.82;53.17;;;8.10;99.90;;;;;;5114727;28;20092;-51
2023/03/02 07:28:20;;;;;;;74.88;44.55;;;8.10;99.90;;;;;;5133888;28;20027;-50
2023/03/02 07:30:46;;;;;;;72.55;44.03;;;8.20;99.90;;;;;;5133595;28;20542;-51
2023/03/02 07:33:12;;;;;;;78.50;47.67;;;8.20;99.90;;;;;;5133775;28;20090;-51
2023/03/02 07:35:38;;;;;;;73.63;46.40;;;8.20;99.90;;;;;;5114823;28;20031;-51
2023/03/02 07:38:03;;;;;;;64.55;40.45;;;8.30;99.90;;;;;;5134192;28;20055;-50
2023/03/02 07:40:29;;;;;;;67.05;40.72;;;8.20;99.90;;;;;;5133478;28;20027;-51
2023/03/02 07:42:55;;;;;;;72.85;45.65;;;8.20;99.90;;;;;;5133616;28;20023;-50
2023/03/02 07:45:23;;;;;;;72.10;45.90;;;8.10;99.90;;;;;;5133850;28;20035;-51
2023/03/02 07:47:49;;;;;;;58.97;38.72;;;7.90;99.90;;;;;;5131506;28;20106;-50
2023/03/02 07:50:15;;;;;;;66.25;40.75;;;8.00;99.90;;;;;;5134117;27;20088;-51
2023/03/02 07:52:41;;;;;;;66.00;41.20;;;8.00;99.90;;;;;;5118261;27;20486;-50
2023/03/02 07:55:07;;;;;;;67.30;41.15;;;8.00;99.90;;;;;;5137338;27;20415;-50
2023/03/02 07:57:33;;;;;;;63.85;40.50;;;8.20;99.90;;;;;;5100869;27;20084;-50
2023/03/02 07:59:59;;;;;;;62.55;37.92;;;8.40;99.90;;;;;;5118088;27;20379;-51
2023/03/02 08:02:24;;;;;;;65.35;38.80;;;8.50;99.90;;;;;;5137006;27;20082;-50
2023/03/02 08:04:51;;;;;;;63.30;39.92;;;8.60;99.90;;;;;;5136839;27;20042;-50
2023/03/02 08:07:17;;;;;;;59.22;37.67;;;8.60;99.90;;;;;;5118388;27;20042;-51
2023/03/02 08:09:43;;;;;;;61.17;38.65;;;8.70;99.90;;;;;;5137030;27;20030;-51
2023/03/02 08:12:09;;;;;;;58.88;38.00;;;8.90;99.90;;;;;;5136816;27;20019;-51
2023/03/02 08:14:35;;;;;;;67.97;42.58;;;;;;;;;;5100902;27;20035;-50
2023/03/02 08:17:02;;;;;;;66.95;40.58;;;9.60;99.90;;;;;;5136855;27;20030;-50
2023/03/02 08:19:28;;;;;;;60.20;38.60;;;9.10;99.90;;;;;;5114116;28;20044;-50
2023/03/02 08:21:54;;;;;;;59.42;38.58;;;9.10;99.90;;;;;;5096857;28;20039;-51
2023/03/02 08:24:19;;;;;;;62.58;39.42;;;9.00;99.90;;;;;;5113936;28;20057;-50
2023/03/02 08:26:45;;;;;;;65.32;39.45;;;9.10;99.90;;;;;;5112749;28;20028;-51
2023/03/02 08:29:11;;;;;;;67.13;41.80;;;8.70;99.90;;;;;;5113916;28;20486;-50
2023/03/02 08:31:37;;;;;;;64.28;41.25;;;8.70;99.90;;;;;;5087178;28;20039;-51
2023/03/02 08:34:02;;;;;;;60.22;38.67;;;8.90;99.90;;;;;;5113751;28;20130;-50
2023/03/02 08:36:28;;;;;;;61.63;38.25;;;8.80;99.90;;;;;;5113693;28;20031;-50
2023/03/02 08:38:54;;;;;;;59.20;37.15;;;8.70;99.90;;;;;;5113068;28;20032;-50
2023/03/02 08:41:22;;;;;;;53.92;34.15;;;8.70;99.90;;;;;;5113309;28;20023;-50
2023/03/02 08:43:48;;;;;;;48.67;32.17;;;8.80;99.90;;;;;;5078611;28;20041;-51
2023/03/02 08:46:17;;;;;;;53.20;33.75;;;8.70;99.90;;;;;;5113219;28;20097;-51
2023/03/02 08:48:43;;;;;;;55.63;36.75;;;8.70;99.90;;;;;;5113395;28;20080;-50
2023/03/02 08:51:15;;;;;;;61.65;38.35;;;8.90;99.90;;;;;;5117712;27;20027;-51
2023/03/02 08:53:44;;;;;;;54.28;36.08;;;9.00;99.90;;;;;;5127059;27;20438;-50
2023/03/02 08:56:24;;;;;;;54.33;35.63;;;8.90;99.90;;;;;;5136242;27;20027;-50
2023/03/02 08:58:51;;;;;;;56.15;37.53;;;9.00;99.90;;;;;;5134694;27;20066;-50
2023/03/02 09:01:23;;;;;;;51.60;36.50;;;9.00;99.90;;;;;;5116954;27;20151;-51
2023/03/02 09:03:50;;;;;;;59.72;39.33;;;9.00;99.90;;;;;;5135796;27;20027;-51
2023/03/02 09:06:16;;;;;;;57.92;37.80;;;9.00;99.90;;;;;;5135906;27;20054;-51
2023/03/02 09:08:41;;;;;;;60.30;40.72;;;9.00;99.90;;;;;;5116845;27;20031;-50
2023/03/02 09:11:07;;;;;;;64.05;40.25;;;8.90;99.90;;;;;;5135747;27;20056;-50
2023/03/02 09:13:33;;;;;;;65.85;41.85;;;9.00;99.90;;;;;;5136037;27;20470;-50
2023/03/02 09:16:00;;;;;;;68.65;42.75;;;9.20;99.90;;;;;;5136021;27;20023;-51
2023/03/02 09:18:27;;;;;;;67.03;45.47;;;;;;;;;;5134132;27;20035;-50
2023/03/02 09:20:55;;;;;;;74.00;49.08;;;9.40;99.90;;;;;;5135362;27;20501;-51
2023/03/02 09:23:21;;;;;;;70.70;49.20;;;9.40;99.90;;;;;;5133079;27;20031;-54
2023/03/02 09:25:47;;;;;;;84.35;55.38;;;9.50;99.90;;;;;;5125981;27;20468;-52
2023/03/02 09:28:14;;;;;;;71.45;50.22;;;9.80;99.90;;;;;;5124900;27;20042;-55
2023/03/02 09:30:40;;;;;;;70.78;47.72;;;9.80;99.90;;;;;;5121766;27;20066;-50
2023/03/02 09:33:06;;;;;;;72.78;47.55;;;9.80;99.90;;;;;;5122278;27;20051;-49
2023/03/02 09:35:32;;;;;;;67.78;42.03;;;10.00;99.90;;;;;;5104473;27;20072;-60
2023/03/02 09:37:58;;;;;;;66.20;43.25;;;10.10;99.90;;;;;;5123447;27;20027;-54
2023/03/02 09:40:26;;;;;;;61.60;42.88;;;10.30;99.90;;;;;;5122463;27;20119;-53
2023/03/02 09:43:17;;;;;;;62.65;42.33;;;10.50;99.90;;;;;;5131646;27;20030;-56
2023/03/02 09:45:51;;;;;;;58.10;38.10;;;10.60;99.90;;;;;;5132380;27;20099;-49
2023/03/02 09:48:38;;;;;;;56.67;38.15;;;;;;;;;;5131654;27;20416;-51
2023/03/02 09:51:12;;;;;;;52.83;35.70;;;;;;;;;;5132160;27;20055;-52
2023/03/02 09:53:46;;;;;;;49.33;33.63;;;;;;;;;;5131655;27;20486;-61
2023/03/02 09:56:17;;;;;;;58.25;38.47;;;11.00;99.90;;;;;;5130764;27;20022;-52
2023/03/02 09:59:03;;;;;;;58.08;40.30;;;11.10;99.90;;;;;;5132488;27;20446;-52
2023/03/02 10:01:34;;;;;;;57.17;40.95;;;;;;;;;;5075586;28;20032;-52
2023/03/02 10:04:29;;;;;;;60.35;43.38;;;11.20;99.90;;;;;;5108874;28;20452;-52
2023/03/02 10:06:56;;;;;;;60.67;42.83;;;;;;;;;;5024903;28;20042;-52
2023/03/02 10:09:22;;;;;;;65.75;43.45;;;11.30;99.90;;;;;;5029632;28;20034;-53
2023/03/02 10:12:32;;;;;;;61.50;42.17;;;11.30;99.90;;;;;;5029376;28;20790;-49
2023/03/02 10:15:07;;;;;;;64.57;44.03;;;11.10;99.90;;;;;;4972540;28;20129;-50
2023/03/02 10:17:45;;;;;;;58.47;42.58;;;11.20;99.90;;;;;;4971232;28;20038;-50
2023/03/02 10:20:23;;;;;;;63.15;44.15;;;11.20;99.90;;;;;;4971114;28;20102;-50
2023/03/02 10:22:56;;;;;;;60.10;43.50;;;11.00;99.90;;;;;;4971241;28;20042;-50
2023/03/02 10:25:41;;;;;;;59.15;43.17;;;11.10;99.90;;;;;;4989620;28;20082;-50
2023/03/02 10:28:31;;;;;;;57.33;41.70;;;11.10;99.90;;;;;;4974311;28;20145;-49
2023/03/02 10:31:08;;;;;;;60.25;45.65;;;11.20;99.90;;;;;;4954573;28;20493;-50
2023/03/02 10:33:38;;;;;;;50.63;36.85;;;11.20;99.90;;;;;;4990459;28;20046;-50
2023/03/02 10:36:13;;;;;;;52.45;37.72;;;11.00;99.90;;;;;;4990671;28;20101;-49
2023/03/02 10:38:39;;;;;;;55.13;39.45;;;11.10;99.90;;;;;;4990335;28;20038;-49
2023/03/02 10:41:07;;;;;;;54.72;40.47;;;11.00;99.90;;;;;;4990311;28;20125;-50
2023/03/02 10:43:41;;;;;;;58.20;41.20;;;11.10;99.90;;;;;;5003638;28;20041;-50
2023/03/02 10:46:09;;;;;;;56.05;39.88;;;11.10;99.90;;;;;;5029791;28;20045;-50
2023/03/02 10:49:00;;;;;;;58.05;41.00;;;10.90;99.90;;;;;;5013023;28;20117;-50
2023/03/02 10:51:27;;;;;;;59.17;42.45;;;10.80;99.90;;;;;;5063572;28;20132;-50
2023/03/02 10:54:10;;;;;;;62.42;44.63;;;10.70;99.90;;;;;;5069670;28;20032;-50
2023/03/02 10:56:37;;;;;;;58.88;43.00;;;10.80;99.90;;;;;;5110119;28;20381;-50
2023/03/02 10:59:44;;;;;;;55.30;39.28;;;11.00;99.90;;;;;;5112380;28;20543;-50
2023/03/02 11:02:17;;;;;;;61.97;45.28;;;11.10;99.90;;;;;;5089771;28;20059;-50
2023/03/02 11:04:43;;;;;;;84.93;66.15;;;11.10;99.90;;;;;;5109983;28;20127;-50
2023/03/02 11:07:11;;;;;;;58.95;42.85;;;;;;;;;;5076070;28;20081;-50
2023/03/02 11:09:38;;;;;;;59.03;41.17;;;11.50;99.90;;;;;;5109929;28;20041;-50
2023/03/02 11:12:11;;;;;;;58.78;42.47;;;11.40;99.90;;;;;;5110681;28;20081;-50
2023/03/02 11:14:37;;;;;;;57.38;40.40;;;11.40;99.90;;;;;;5111203;28;20209;-50
2023/03/02 11:17:28;;;;;;;62.55;40.88;;;11.40;99.90;;;;;;5111485;28;20127;-50
2023/03/02 11:19:55;;;;;;;61.40;42.25;;;11.30;99.90;;;;;;5111169;28;20454;-50
2023/03/02 11:22:32;;;;;;;57.63;41.05;;;11.40;99.90;;;;;;5111039;28;20038;-50
2023/03/02 11:25:02;;;;;;;58.88;40.30;;;11.20;99.90;;;;;;5111438;28;20427;-50
2023/03/02 11:27:32;;;;;;;58.45;41.72;;;11.20;99.90;;;;;;5115116;28;20534;-50
2023/03/02 11:30:11;;;;;;;61.25;44.53;;;10.90;99.90;;;;;;5115109;28;20034;-50
2023/03/02 11:33:15;;;;;;;64.95;44.40;;;11.00;99.90;;;;;;5115801;28;20042;-50
2023/03/02 11:36:22;;;;;;;65.50;43.60;;;11.10;99.90;;;;;;5117149;28;20386;-50
2023/03/02 11:38:52;;;;;;;59.15;40.83;;;11.20;99.90;;;;;;5057354;28;20032;-49
2023/03/02 11:41:31;;;;;;;60.58;41.17;;;11.20;99.90;;;;;;5057343;28;20117;-49
2023/03/02 11:44:06;;;;;;;60.35;41.13;;;11.10;99.90;;;;;;5074146;28;20048;-51
2023/03/02 11:46:33;;;;;;;68.88;46.25;;;11.10;99.90;;;;;;5073965;28;20048;-50
2023/03/02 11:49:01;;;;;;;60.70;42.03;;;;;;;;;;5073912;28;20036;-50
2023/03/02 11:51:38;;;;;;;58.90;40.78;;;11.10;99.90;;;;;;5073933;28;20028;-50
2023/03/02 11:54:41;;;;;;;58.97;41.13;;;11.10;99.90;;;;;;5096680;28;20411;-50
2023/03/02 11:57:22;;;;;;;59.95;39.47;;;11.20;99.90;;;;;;5080504;28;20479;-50
2023/03/02 11:59:49;;;;;;;59.67;41.50;;;11.00;99.90;;;;;;5114338;28;20027;-50
2023/03/02 12:02:15;;;;;;;71.82;47.85;;;11.10;99.90;;;;;;5114319;28;20069;-50
2023/03/02 12:04:41;;;;;;;62.03;41.03;;;11.20;99.90;;;;;;5114201;28;20502;-50
2023/03/02 12:07:16;;;;;;;59.33;40.28;;;11.20;99.90;;;;;;5114361;28;20091;-50
2023/03/02 12:09:42;;;;;;;59.20;40.15;;;11.30;99.90;;;;;;5114494;28;20095;-50
2023/03/02 12:12:25;;;;;;;58.22;40.63;;;11.30;99.90;;;;;;5114303;28;20126;-49
2023/03/02 12:14:51;;;;;;;58.55;41.42;;;11.30;99.90;;;;;;5114645;28;20505;-49
2023/03/02 12:17:26;;;;;;;58.15;41.67;;;11.40;99.90;;;;;;5116346;28;20119;-49
2023/03/02 12:19:54;;;;;;;55.03;38.63;;;11.20;99.90;;;;;;5116487;28;20066;-49
2023/03/02 12:22:30;;;;;;;60.58;41.85;;;11.20;99.90;;;;;;5116174;28;20471;-49
2023/03/02 12:25:19;;;;;;;59.67;40.92;;;11.20;99.90;;;;;;5114043;28;20468;-49
2023/03/02 12:27:48;;;;;;;57.67;38.45;;;11.20;99.90;;;;;;5053142;28;20436;-49
2023/03/02 12:30:23;;;;;;;61.63;42.03;;;11.10;99.90;;;;;;5053333;28;20033;-49
2023/03/02 12:33:18;;;;;;;60.30;40.45;;;10.90;99.90;;;;;;5053224;28;20043;-50
2023/03/02 12:35:45;;;;;;;53.70;39.75;;;11.00;99.90;;;;;;5052232;28;20029;-50
2023/03/02 12:38:17;;;;;;;61.65;39.67;;;;;;;;;;5053436;28;20045;-50
2023/03/02 12:41:12;;;;;;;58.08;40.63;;;10.70;99.90;;;;;;5036336;28;20496;-49
2023/03/02 12:43:55;;;;;;;53.65;36.40;;;10.60;99.90;;;;;;5052926;28;20029;-49
2023/03/02 12:46:35;;;;;;;58.65;39.60;;;10.10;99.90;;;;;;5050540;28;20041;-47
2023/03/02 12:49:07;;;;;;;57.42;37.63;;;;;;;;;;5051428;28;20469;-49
2023/03/02 12:51:44;;;;;;;60.15;36.40;;;;;;;;;;5050247;28;20030;-48